Terminal Aerodrome Forecast
Issued by NWS Wichita, KS

Home | Current Version | Previous Version | Text Only | Print | Product List | Glossary Off
Versions: 1 2 3 4 5 6 7 8 9 10 11 12 13 14 15 16 17 18 19 20 21 22 23

000
FTUS43 KICT 030536
TAFICT
TAF
KICT 030536Z 0306/0406 18019G27KT 2SM BR OVC004
      TEMPO 0309/0313 3SM BR OVC006
     FM031300 20019G27KT 4SM BR BKN010 OVC250
     FM031500 23017G25KT P6SM SCT020 BKN250
     FM031900 36017G25KT P6SM BKN030 OVC250
     FM040000 01013KT P6SM SCT030 BKN250=

USA.gov is the U.S. government's official web portal to all federal, state and local government web resources and services.